Last Chance, Iowa
Current Conditions -  °F | °C
As of 8:55 PM on Sunday 23 Nov 2014 (Local Time) from KCNC Reporting Station
Overcast Overcast  
Wind Chill: 28°   Ceiling: 1400
Heat Index: 39°   Visibility: 8mi
Dew Point: 37°   Wind: 29mph
Humidity: 93%   Direction: 330°NNW
Pressure: 29.36"   Gusts: 41mph
Location:  40.9417°N, 93.4995°W
Report Text: KCNC 240255Z AUTO 33025G36KT 8SM FEW010 BKN014 OVC019 04/03 A2936 RMK AO2
Loading
Personal Weather Stations






























Interactive Weather Map New forecast layout! Learn more

10-Day Weather Forecast

Advertisements
Track Severe Weather on mobile